sensor_id;sensor_type;location;lat;lon;timestamp;temperature;humidity
8557;DHT22;4316;53.840;10.762;2022-07-06T00:02:03;16.00;99.90
8557;DHT22;4316;53.840;10.762;2022-07-06T00:04:29;16.00;99.90
8557;DHT22;4316;53.840;10.762;2022-07-06T00:06:54;16.00;99.90
8557;DHT22;4316;53.840;10.762;2022-07-06T00:09:20;16.00;99.90
8557;DHT22;4316;53.840;10.762;2022-07-06T00:11:45;16.10;99.90
8557;DHT22;4316;53.840;10.762;2022-07-06T00:14:11;16.00;99.90
8557;DHT22;4316;53.840;10.762;2022-07-06T00:16:37;16.10;99.90
8557;DHT22;4316;53.840;10.762;2022-07-06T00:19:02;16.10;99.90
8557;DHT22;4316;53.840;10.762;2022-07-06T00:21:28;16.00;99.90
8557;DHT22;4316;53.840;10.762;2022-07-06T00:23:53;16.00;99.90
8557;DHT22;4316;53.840;10.762;2022-07-06T00:26:19;15.90;99.90
8557;DHT22;4316;53.840;10.762;2022-07-06T00:28:45;16.00;99.90
8557;DHT22;4316;53.840;10.762;2022-07-06T00:31:11;15.90;99.90
8557;DHT22;4316;53.840;10.762;2022-07-06T00:33:37;15.80;99.90
8557;DHT22;4316;53.840;10.762;2022-07-06T00:36:03;15.80;99.90
8557;DHT22;4316;53.840;10.762;2022-07-06T00:38:28;15.80;99.90
8557;DHT22;4316;53.840;10.762;2022-07-06T00:40:55;15.80;99.90
8557;DHT22;4316;53.840;10.762;2022-07-06T00:43:21;15.70;99.90
8557;DHT22;4316;53.840;10.762;2022-07-06T00:45:46;15.60;99.90
8557;DHT22;4316;53.840;10.762;2022-07-06T00:48:12;15.70;99.90
8557;DHT22;4316;53.840;10.762;2022-07-06T00:50:38;15.60;99.90
8557;DHT22;4316;53.840;10.762;2022-07-06T00:53:06;15.70;99.90
8557;DHT22;4316;53.840;10.762;2022-07-06T00:55:37;15.60;99.90
8557;DHT22;4316;53.840;10.762;2022-07-06T00:58:07;15.60;99.90
8557;DHT22;4316;53.840;10.762;2022-07-06T01:00:34;15.60;99.90
8557;DHT22;4316;53.840;10.762;2022-07-06T01:02:59;15.50;99.90
8557;DHT22;4316;53.840;10.762;2022-07-06T01:05:26;15.50;99.90
8557;DHT22;4316;53.840;10.762;2022-07-06T01:07:52;15.50;99.90
8557;DHT22;4316;53.840;10.762;2022-07-06T01:10:19;15.50;99.90
8557;DHT22;4316;53.840;10.762;2022-07-06T01:12:46;15.50;99.90
8557;DHT22;4316;53.840;10.762;2022-07-06T01:15:15;15.50;99.90
8557;DHT22;4316;53.840;10.762;2022-07-06T01:17:42;15.50;99.90
8557;DHT22;4316;53.840;10.762;2022-07-06T01:20:13;15.60;99.90
8557;DHT22;4316;53.840;10.762;2022-07-06T01:22:39;15.60;99.90
8557;DHT22;4316;53.840;10.762;2022-07-06T01:25:06;15.70;99.90
8557;DHT22;4316;53.840;10.762;2022-07-06T01:27:36;15.70;99.90
8557;DHT22;4316;53.840;10.762;2022-07-06T01:30:10;15.60;99.90
8557;DHT22;4316;53.840;10.762;2022-07-06T01:32:37;15.60;99.90
8557;DHT22;4316;53.840;10.762;2022-07-06T01:35:03;15.60;99.90
8557;DHT22;4316;53.840;10.762;2022-07-06T01:37:30;15.60;99.90
8557;DHT22;4316;53.840;10.762;2022-07-06T01:39:59;15.50;99.90
8557;DHT22;4316;53.840;10.762;2022-07-06T01:42:26;15.50;99.90
8557;DHT22;4316;53.840;10.762;2022-07-06T01:44:52;15.50;99.90
8557;DHT22;4316;53.840;10.762;2022-07-06T01:47:19;15.50;99.90
8557;DHT22;4316;53.840;10.762;2022-07-06T01:49:45;15.60;99.90
8557;DHT22;4316;53.840;10.762;2022-07-06T01:52:10;15.60;99.90
8557;DHT22;4316;53.840;10.762;2022-07-06T01:54:36;15.60;99.90
8557;DHT22;4316;53.840;10.762;2022-07-06T01:57:03;15.60;99.90
8557;DHT22;4316;53.840;10.762;2022-07-06T01:59:29;15.50;99.90
8557;DHT22;4316;53.840;10.762;2022-07-06T02:01:55;15.50;99.90
8557;DHT22;4316;53.840;10.762;2022-07-06T02:04:22;15.50;99.90
8557;DHT22;4316;53.840;10.762;2022-07-06T02:06:47;15.50;99.90
8557;DHT22;4316;53.840;10.762;2022-07-06T02:09:13;15.50;99.90
8557;DHT22;4316;53.840;10.762;2022-07-06T02:11:39;15.50;99.90
8557;DHT22;4316;53.840;10.762;2022-07-06T02:14:05;15.50;99.90
8557;DHT22;4316;53.840;10.762;2022-07-06T02:16:30;15.50;99.90
8557;DHT22;4316;53.840;10.762;2022-07-06T02:18:56;15.50;99.90
8557;DHT22;4316;53.840;10.762;2022-07-06T02:21:22;15.40;99.90
8557;DHT22;4316;53.840;10.762;2022-07-06T02:23:48;15.40;99.90
8557;DHT22;4316;53.840;10.762;2022-07-06T02:26:14;15.50;99.90
8557;DHT22;4316;53.840;10.762;2022-07-06T02:28:40;15.50;99.90
8557;DHT22;4316;53.840;10.762;2022-07-06T02:31:06;15.50;99.90
8557;DHT22;4316;53.840;10.762;2022-07-06T02:33:31;15.50;99.90
8557;DHT22;4316;53.840;10.762;2022-07-06T02:35:58;15.60;99.90
8557;DHT22;4316;53.840;10.762;2022-07-06T02:38:23;15.60;99.90
8557;DHT22;4316;53.840;10.762;2022-07-06T02:40:50;15.50;99.90
8557;DHT22;4316;53.840;10.762;2022-07-06T02:43:16;15.50;99.90
8557;DHT22;4316;53.840;10.762;2022-07-06T02:45:42;15.50;99.90
8557;DHT22;4316;53.840;10.762;2022-07-06T02:48:09;15.40;99.90
8557;DHT22;4316;53.840;10.762;2022-07-06T02:50:34;15.40;99.90
8557;DHT22;4316;53.840;10.762;2022-07-06T02:53:00;15.40;99.90
8557;DHT22;4316;53.840;10.762;2022-07-06T02:55:27;15.50;99.90
8557;DHT22;4316;53.840;10.762;2022-07-06T02:57:53;15.50;99.90
8557;DHT22;4316;53.840;10.762;2022-07-06T03:00:20;15.50;99.90
8557;DHT22;4316;53.840;10.762;2022-07-06T03:02:46;15.50;99.90
8557;DHT22;4316;53.840;10.762;2022-07-06T03:05:12;15.50;99.90
8557;DHT22;4316;53.840;10.762;2022-07-06T03:07:38;15.50;99.90
8557;DHT22;4316;53.840;10.762;2022-07-06T03:10:05;15.50;99.90
8557;DHT22;4316;53.840;10.762;2022-07-06T03:12:30;15.50;99.90
8557;DHT22;4316;53.840;10.762;2022-07-06T03:14:56;15.50;99.90
8557;DHT22;4316;53.840;10.762;2022-07-06T03:17:22;15.50;99.90
8557;DHT22;4316;53.840;10.762;2022-07-06T03:19:48;15.50;99.90
8557;DHT22;4316;53.840;10.762;2022-07-06T03:22:14;15.50;99.90
8557;DHT22;4316;53.840;10.762;2022-07-06T03:24:41;15.40;99.90
8557;DHT22;4316;53.840;10.762;2022-07-06T03:27:07;15.40;99.90
8557;DHT22;4316;53.840;10.762;2022-07-06T03:29:33;15.50;99.90
8557;DHT22;4316;53.840;10.762;2022-07-06T03:31:59;15.50;99.90
8557;DHT22;4316;53.840;10.762;2022-07-06T03:34:25;15.40;99.90
8557;DHT22;4316;53.840;10.762;2022-07-06T03:36:51;15.50;99.90
8557;DHT22;4316;53.840;10.762;2022-07-06T03:39:17;15.50;99.90
8557;DHT22;4316;53.840;10.762;2022-07-06T03:41:42;15.50;99.90
8557;DHT22;4316;53.840;10.762;2022-07-06T03:44:09;15.40;99.90
8557;DHT22;4316;53.840;10.762;2022-07-06T03:46:35;15.40;99.90
8557;DHT22;4316;53.840;10.762;2022-07-06T03:49:01;15.40;99.90
8557;DHT22;4316;53.840;10.762;2022-07-06T03:51:26;15.40;99.90
8557;DHT22;4316;53.840;10.762;2022-07-06T03:53:52;15.40;99.90
8557;DHT22;4316;53.840;10.762;2022-07-06T03:56:18;15.50;99.90
8557;DHT22;4316;53.840;10.762;2022-07-06T03:59:02;15.60;99.90
8557;DHT22;4316;53.840;10.762;2022-07-06T04:01:32;15.50;99.90
8557;DHT22;4316;53.840;10.762;2022-07-06T04:03:58;15.60;99.90
8557;DHT22;4316;53.840;10.762;2022-07-06T04:06:24;15.50;99.90
8557;DHT22;4316;53.840;10.762;2022-07-06T04:08:51;15.50;99.90
8557;DHT22;4316;53.840;10.762;2022-07-06T04:11:17;15.50;99.90
8557;DHT22;4316;53.840;10.762;2022-07-06T04:13:44;15.50;99.90
8557;DHT22;4316;53.840;10.762;2022-07-06T04:16:09;15.60;99.90
8557;DHT22;4316;53.840;10.762;2022-07-06T04:18:35;15.60;99.90
8557;DHT22;4316;53.840;10.762;2022-07-06T04:21:01;15.60;99.90
8557;DHT22;4316;53.840;10.762;2022-07-06T04:23:29;15.60;99.90
8557;DHT22;4316;53.840;10.762;2022-07-06T04:25:56;15.60;99.90
8557;DHT22;4316;53.840;10.762;2022-07-06T04:28:23;15.60;99.90
8557;DHT22;4316;53.840;10.762;2022-07-06T04:30:48;15.60;99.90
8557;DHT22;4316;53.840;10.762;2022-07-06T04:33:17;15.40;99.90
8557;DHT22;4316;53.840;10.762;2022-07-06T04:35:44;15.10;99.90
8557;DHT22;4316;53.840;10.762;2022-07-06T04:38:10;15.10;99.90
8557;DHT22;4316;53.840;10.762;2022-07-06T04:40:35;15.10;99.90
8557;DHT22;4316;53.840;10.762;2022-07-06T04:43:06;15.10;99.90
8557;DHT22;4316;53.840;10.762;2022-07-06T04:45:33;15.10;99.90
8557;DHT22;4316;53.840;10.762;2022-07-06T04:47:59;15.10;99.90
8557;DHT22;4316;53.840;10.762;2022-07-06T04:50:25;15.10;99.90
8557;DHT22;4316;53.840;10.762;2022-07-06T04:52:53;15.20;99.90
8557;DHT22;4316;53.840;10.762;2022-07-06T04:55:19;15.10;99.90
8557;DHT22;4316;53.840;10.762;2022-07-06T04:57:46;15.20;99.90
8557;DHT22;4316;53.840;10.762;2022-07-06T05:00:13;15.20;99.90
8557;DHT22;4316;53.840;10.762;2022-07-06T05:02:40;15.20;99.90
8557;DHT22;4316;53.840;10.762;2022-07-06T05:05:06;15.20;99.90
8557;DHT22;4316;53.840;10.762;2022-07-06T05:07:32;15.30;99.90
8557;DHT22;4316;53.840;10.762;2022-07-06T05:09:59;15.30;99.90
8557;DHT22;4316;53.840;10.762;2022-07-06T05:12:25;15.30;99.90
8557;DHT22;4316;53.840;10.762;2022-07-06T05:14:51;15.30;99.90
8557;DHT22;4316;53.840;10.762;2022-07-06T05:17:18;15.20;99.90
8557;DHT22;4316;53.840;10.762;2022-07-06T05:19:44;15.20;99.90
8557;DHT22;4316;53.840;10.762;2022-07-06T05:22:09;15.20;99.90
8557;DHT22;4316;53.840;10.762;2022-07-06T05:24:35;15.20;99.90
8557;DHT22;4316;53.840;10.762;2022-07-06T05:27:01;15.30;99.90
8557;DHT22;4316;53.840;10.762;2022-07-06T05:29:26;15.30;99.90
8557;DHT22;4316;53.840;10.762;2022-07-06T05:31:52;15.20;99.90
8557;DHT22;4316;53.840;10.762;2022-07-06T05:34:18;15.30;99.90
8557;DHT22;4316;53.840;10.762;2022-07-06T05:36:44;15.30;99.90
8557;DHT22;4316;53.840;10.762;2022-07-06T05:39:10;15.40;99.90
8557;DHT22;4316;53.840;10.762;2022-07-06T05:41:35;15.40;99.90
8557;DHT22;4316;53.840;10.762;2022-07-06T05:44:01;15.40;99.90
8557;DHT22;4316;53.840;10.762;2022-07-06T05:46:28;15.40;99.90
8557;DHT22;4316;53.840;10.762;2022-07-06T05:48:54;15.40;99.90
8557;DHT22;4316;53.840;10.762;2022-07-06T05:51:39;15.30;99.90
8557;DHT22;4316;53.840;10.762;2022-07-06T05:54:06;15.50;99.90
8557;DHT22;4316;53.840;10.762;2022-07-06T05:56:31;15.60;99.90
8557;DHT22;4316;53.840;10.762;2022-07-06T05:58:57;15.60;99.90
8557;DHT22;4316;53.840;10.762;2022-07-06T06:01:23;15.70;99.90
8557;DHT22;4316;53.840;10.762;2022-07-06T06:03:59;15.80;99.90
8557;DHT22;4316;53.840;10.762;2022-07-06T06:06:26;15.90;99.90
8557;DHT22;4316;53.840;10.762;2022-07-06T06:08:52;15.90;99.90
8557;DHT22;4316;53.840;10.762;2022-07-06T06:11:18;16.00;99.90
8557;DHT22;4316;53.840;10.762;2022-07-06T06:13:44;16.10;99.90
8557;DHT22;4316;53.840;10.762;2022-07-06T06:16:10;16.20;99.90
8557;DHT22;4316;53.840;10.762;2022-07-06T06:18:36;16.40;99.90
8557;DHT22;4316;53.840;10.762;2022-07-06T06:21:01;16.70;99.90
8557;DHT22;4316;53.840;10.762;2022-07-06T06:23:27;16.80;99.90
8557;DHT22;4316;53.840;10.762;2022-07-06T06:25:52;16.80;99.90
8557;DHT22;4316;53.840;10.762;2022-07-06T06:28:18;16.70;99.90
8557;DHT22;4316;53.840;10.762;2022-07-06T06:30:43;16.70;99.90
8557;DHT22;4316;53.840;10.762;2022-07-06T06:33:17;16.70;99.90
8557;DHT22;4316;53.840;10.762;2022-07-06T06:35:45;16.90;99.90
8557;DHT22;4316;53.840;10.762;2022-07-06T06:38:12;17.20;99.90
8557;DHT22;4316;53.840;10.762;2022-07-06T06:40:37;17.40;99.90
8557;DHT22;4316;53.840;10.762;2022-07-06T06:43:03;17.50;99.90
8557;DHT22;4316;53.840;10.762;2022-07-06T06:45:30;17.60;99.90
8557;DHT22;4316;53.840;10.762;2022-07-06T06:47:56;17.60;99.90
8557;DHT22;4316;53.840;10.762;2022-07-06T06:50:21;17.60;99.90
8557;DHT22;4316;53.840;10.762;2022-07-06T06:52:49;17.50;99.90
8557;DHT22;4316;53.840;10.762;2022-07-06T06:55:15;17.40;99.90
8557;DHT22;4316;53.840;10.762;2022-07-06T06:57:40;17.40;99.90
8557;DHT22;4316;53.840;10.762;2022-07-06T07:00:06;17.20;99.90
8557;DHT22;4316;53.840;10.762;2022-07-06T07:02:32;17.20;99.90
8557;DHT22;4316;53.840;10.762;2022-07-06T07:04:58;17.20;99.90
8557;DHT22;4316;53.840;10.762;2022-07-06T07:07:23;17.10;99.90
8557;DHT22;4316;53.840;10.762;2022-07-06T07:09:49;17.10;99.90
8557;DHT22;4316;53.840;10.762;2022-07-06T07:12:15;17.30;99.90
8557;DHT22;4316;53.840;10.762;2022-07-06T07:14:43;17.40;99.90
8557;DHT22;4316;53.840;10.762;2022-07-06T07:17:08;17.50;99.90
8557;DHT22;4316;53.840;10.762;2022-07-06T07:19:34;17.50;99.90
8557;DHT22;4316;53.840;10.762;2022-07-06T07:21:59;17.50;99.90
8557;DHT22;4316;53.840;10.762;2022-07-06T07:24:25;17.50;99.90
8557;DHT22;4316;53.840;10.762;2022-07-06T07:26:50;17.60;99.90
8557;DHT22;4316;53.840;10.762;2022-07-06T07:29:16;17.70;99.90
8557;DHT22;4316;53.840;10.762;2022-07-06T07:31:42;17.70;99.90
8557;DHT22;4316;53.840;10.762;2022-07-06T07:34:07;17.70;99.90
8557;DHT22;4316;53.840;10.762;2022-07-06T07:36:33;17.80;99.90
8557;DHT22;4316;53.840;10.762;2022-07-06T07:38:58;17.90;99.90
8557;DHT22;4316;53.840;10.762;2022-07-06T07:41:24;18.00;99.90
8557;DHT22;4316;53.840;10.762;2022-07-06T07:43:49;18.10;99.90
8557;DHT22;4316;53.840;10.762;2022-07-06T07:46:15;18.10;99.90
8557;DHT22;4316;53.840;10.762;2022-07-06T07:48:41;18.10;99.90
8557;DHT22;4316;53.840;10.762;2022-07-06T07:51:07;18.20;99.90
8557;DHT22;4316;53.840;10.762;2022-07-06T07:53:33;18.10;99.90
8557;DHT22;4316;53.840;10.762;2022-07-06T07:55:58;18.00;99.90
8557;DHT22;4316;53.840;10.762;2022-07-06T07:58:24;18.10;99.90
8557;DHT22;4316;53.840;10.762;2022-07-06T08:00:50;18.10;99.90
8557;DHT22;4316;53.840;10.762;2022-07-06T08:03:15;18.10;99.90
8557;DHT22;4316;53.840;10.762;2022-07-06T08:05:41;18.20;99.90
8557;DHT22;4316;53.840;10.762;2022-07-06T08:08:07;18.40;99.90
8557;DHT22;4316;53.840;10.762;2022-07-06T08:10:32;18.60;99.90
8557;DHT22;4316;53.840;10.762;2022-07-06T08:12:58;18.60;99.90
8557;DHT22;4316;53.840;10.762;2022-07-06T08:15:24;18.60;99.90
8557;DHT22;4316;53.840;10.762;2022-07-06T08:17:49;18.50;99.90
8557;DHT22;4316;53.840;10.762;2022-07-06T08:20:15;18.80;99.90
8557;DHT22;4316;53.840;10.762;2022-07-06T08:22:42;19.00;99.90
8557;DHT22;4316;53.840;10.762;2022-07-06T08:25:08;19.20;99.90
8557;DHT22;4316;53.840;10.762;2022-07-06T08:27:34;19.20;99.90
8557;DHT22;4316;53.840;10.762;2022-07-06T08:30:00;19.30;99.90
8557;DHT22;4316;53.840;10.762;2022-07-06T08:32:26;19.40;99.90
8557;DHT22;4316;53.840;10.762;2022-07-06T08:34:51;19.50;99.80
8557;DHT22;4316;53.840;10.762;2022-07-06T08:37:18;19.60;99.30
8557;DHT22;4316;53.840;10.762;2022-07-06T08:39:44;19.70;98.80
8557;DHT22;4316;53.840;10.762;2022-07-06T08:42:11;19.70;99.30
8557;DHT22;4316;53.840;10.762;2022-07-06T08:44:38;19.90;99.00
8557;DHT22;4316;53.840;10.762;2022-07-06T08:47:07;20.40;98.00
8557;DHT22;4316;53.840;10.762;2022-07-06T08:49:35;20.60;97.30
8557;DHT22;4316;53.840;10.762;2022-07-06T08:52:03;20.70;97.00
8557;DHT22;4316;53.840;10.762;2022-07-06T08:54:29;20.80;96.50
8557;DHT22;4316;53.840;10.762;2022-07-06T08:56:55;20.70;96.40
8557;DHT22;4316;53.840;10.762;2022-07-06T08:59:21;20.50;96.60
8557;DHT22;4316;53.840;10.762;2022-07-06T09:01:46;20.50;97.10
8557;DHT22;4316;53.840;10.762;2022-07-06T09:04:15;20.20;96.50
8557;DHT22;4316;53.840;10.762;2022-07-06T09:06:43;20.10;96.90
8557;DHT22;4316;53.840;10.762;2022-07-06T09:09:20;20.10;96.60
8557;DHT22;4316;53.840;10.762;2022-07-06T09:11:47;20.00;96.60
8557;DHT22;4316;53.840;10.762;2022-07-06T09:14:13;19.90;97.00
8557;DHT22;4316;53.840;10.762;2022-07-06T09:16:39;19.90;97.30
8557;DHT22;4316;53.840;10.762;2022-07-06T09:19:09;20.00;97.20
8557;DHT22;4316;53.840;10.762;2022-07-06T09:21:35;19.80;97.00
8557;DHT22;4316;53.840;10.762;2022-07-06T09:24:13;19.90;97.20
8557;DHT22;4316;53.840;10.762;2022-07-06T09:26:40;20.20;97.70
8557;DHT22;4316;53.840;10.762;2022-07-06T09:29:06;20.20;98.50
8557;DHT22;4316;53.840;10.762;2022-07-06T09:31:33;20.20;98.60
8557;DHT22;4316;53.840;10.762;2022-07-06T09:34:03;20.10;98.90
8557;DHT22;4316;53.840;10.762;2022-07-06T09:36:50;19.90;99.00
8557;DHT22;4316;53.840;10.762;2022-07-06T09:39:26;19.80;99.10
8557;DHT22;4316;53.840;10.762;2022-07-06T09:41:54;19.70;99.40
8557;DHT22;4316;53.840;10.762;2022-07-06T09:44:22;19.80;99.70
8557;DHT22;4316;53.840;10.762;2022-07-06T09:46:48;19.80;99.40
8557;DHT22;4316;53.840;10.762;2022-07-06T09:49:19;19.60;99.70
8557;DHT22;4316;53.840;10.762;2022-07-06T09:51:46;19.50;99.30
8557;DHT22;4316;53.840;10.762;2022-07-06T09:54:12;19.60;99.50
8557;DHT22;4316;53.840;10.762;2022-07-06T09:56:42;19.80;99.30
8557;DHT22;4316;53.840;10.762;2022-07-06T09:59:12;19.70;99.30
8557;DHT22;4316;53.840;10.762;2022-07-06T10:01:39;19.60;99.30
8557;DHT22;4316;53.840;10.762;2022-07-06T10:04:07;19.50;99.50
8557;DHT22;4316;53.840;10.762;2022-07-06T10:06:33;19.40;99.70
8557;DHT22;4316;53.840;10.762;2022-07-06T10:08:59;19.20;99.80
8557;DHT22;4316;53.840;10.762;2022-07-06T10:11:25;19.10;99.90
8557;DHT22;4316;53.840;10.762;2022-07-06T10:13:55;19.00;99.90
8557;DHT22;4316;53.840;10.762;2022-07-06T10:16:23;19.00;99.90
8557;DHT22;4316;53.840;10.762;2022-07-06T10:18:51;18.90;99.90
8557;DHT22;4316;53.840;10.762;2022-07-06T10:21:19;18.70;99.90
8557;DHT22;4316;53.840;10.762;2022-07-06T10:23:46;18.50;99.90
8557;DHT22;4316;53.840;10.762;2022-07-06T10:26:13;18.40;99.90
8557;DHT22;4316;53.840;10.762;2022-07-06T10:28:39;18.40;99.90
8557;DHT22;4316;53.840;10.762;2022-07-06T10:31:05;18.40;99.90
8557;DHT22;4316;53.840;10.762;2022-07-06T10:33:32;18.40;99.90
8557;DHT22;4316;53.840;10.762;2022-07-06T10:35:58;18.50;99.90
8557;DHT22;4316;53.840;10.762;2022-07-06T10:38:34;18.70;99.90
8557;DHT22;4316;53.840;10.762;2022-07-06T10:41:05;19.00;99.90
8557;DHT22;4316;53.840;10.762;2022-07-06T10:43:36;19.50;99.90
8557;DHT22;4316;53.840;10.762;2022-07-06T10:46:10;19.90;99.90
8557;DHT22;4316;53.840;10.762;2022-07-06T10:48:38;20.20;99.60
8557;DHT22;4316;53.840;10.762;2022-07-06T10:51:04;20.10;98.30
8557;DHT22;4316;53.840;10.762;2022-07-06T10:53:33;20.20;98.30
8557;DHT22;4316;53.840;10.762;2022-07-06T10:56:02;20.50;97.70
8557;DHT22;4316;53.840;10.762;2022-07-06T10:58:49;20.60;97.00
8557;DHT22;4316;53.840;10.762;2022-07-06T11:01:17;20.80;96.80
8557;DHT22;4316;53.840;10.762;2022-07-06T11:03:47;21.00;97.40
8557;DHT22;4316;53.840;10.762;2022-07-06T11:06:21;20.90;97.20
8557;DHT22;4316;53.840;10.762;2022-07-06T11:08:53;20.90;97.40
8557;DHT22;4316;53.840;10.762;2022-07-06T11:13:50;20.80;98.10
8557;DHT22;4316;53.840;10.762;2022-07-06T11:16:17;20.90;98.60
8557;DHT22;4316;53.840;10.762;2022-07-06T11:18:47;21.00;97.40
8557;DHT22;4316;53.840;10.762;2022-07-06T11:21:37;20.90;97.60
8557;DHT22;4316;53.840;10.762;2022-07-06T11:24:05;21.00;98.00
8557;DHT22;4316;53.840;10.762;2022-07-06T11:26:33;21.10;98.00
8557;DHT22;4316;53.840;10.762;2022-07-06T11:29:03;21.10;97.70
8557;DHT22;4316;53.840;10.762;2022-07-06T11:31:29;21.30;97.80
8557;DHT22;4316;53.840;10.762;2022-07-06T11:33:55;21.40;96.90
8557;DHT22;4316;53.840;10.762;2022-07-06T11:36:22;21.40;97.30
8557;DHT22;4316;53.840;10.762;2022-07-06T11:38:49;21.60;97.50
8557;DHT22;4316;53.840;10.762;2022-07-06T11:41:16;21.50;97.40
8557;DHT22;4316;53.840;10.762;2022-07-06T11:43:44;21.50;97.90
8557;DHT22;4316;53.840;10.762;2022-07-06T11:46:32;21.70;97.40
8557;DHT22;4316;53.840;10.762;2022-07-06T11:49:01;21.80;97.50
8557;DHT22;4316;53.840;10.762;2022-07-06T11:51:35;22.00;96.80
8557;DHT22;4316;53.840;10.762;2022-07-06T11:54:25;22.30;96.90
8557;DHT22;4316;53.840;10.762;2022-07-06T11:56:53;22.50;95.90
8557;DHT22;4316;53.840;10.762;2022-07-06T12:04:27;22.30;96.10
8557;DHT22;4316;53.840;10.762;2022-07-06T12:06:53;22.10;96.00
8557;DHT22;4316;53.840;10.762;2022-07-06T12:09:19;21.80;96.50
8557;DHT22;4316;53.840;10.762;2022-07-06T12:11:46;21.80;96.70
8557;DHT22;4316;53.840;10.762;2022-07-06T12:14:14;21.60;96.70
8557;DHT22;4316;53.840;10.762;2022-07-06T12:16:40;21.50;96.90
8557;DHT22;4316;53.840;10.762;2022-07-06T12:19:06;21.20;96.50
8557;DHT22;4316;53.840;10.762;2022-07-06T12:21:34;21.10;96.50
8557;DHT22;4316;53.840;10.762;2022-07-06T12:24:00;21.00;97.10
8557;DHT22;4316;53.840;10.762;2022-07-06T12:26:27;21.20;97.10
8557;DHT22;4316;53.840;10.762;2022-07-06T12:29:07;21.20;97.10
8557;DHT22;4316;53.840;10.762;2022-07-06T12:31:43;21.30;97.00
8557;DHT22;4316;53.840;10.762;2022-07-06T12:34:34;21.10;96.70
8557;DHT22;4316;53.840;10.762;2022-07-06T12:37:10;21.10;97.40
8557;DHT22;4316;53.840;10.762;2022-07-06T12:39:42;21.20;97.30
8557;DHT22;4316;53.840;10.762;2022-07-06T12:42:08;21.20;97.10
8557;DHT22;4316;53.840;10.762;2022-07-06T12:44:45;21.10;97.30
8557;DHT22;4316;53.840;10.762;2022-07-06T12:47:11;21.00;97.20
8557;DHT22;4316;53.840;10.762;2022-07-06T12:49:38;20.90;97.50
8557;DHT22;4316;53.840;10.762;2022-07-06T12:54:39;21.00;97.30
8557;DHT22;4316;53.840;10.762;2022-07-06T12:57:15;20.90;96.90
8557;DHT22;4316;53.840;10.762;2022-07-06T12:59:43;21.00;97.40
8557;DHT22;4316;53.840;10.762;2022-07-06T13:02:17;21.00;97.10
8557;DHT22;4316;53.840;10.762;2022-07-06T13:04:43;21.00;96.80
8557;DHT22;4316;53.840;10.762;2022-07-06T13:07:18;20.90;96.60
8557;DHT22;4316;53.840;10.762;2022-07-06T13:09:44;20.70;96.60
8557;DHT22;4316;53.840;10.762;2022-07-06T13:12:10;20.80;96.90
8557;DHT22;4316;53.840;10.762;2022-07-06T13:14:36;21.00;97.60
8557;DHT22;4316;53.840;10.762;2022-07-06T13:17:01;21.40;97.10
8557;DHT22;4316;53.840;10.762;2022-07-06T13:19:27;21.50;96.80
8557;DHT22;4316;53.840;10.762;2022-07-06T13:21:53;21.30;96.90
8557;DHT22;4316;53.840;10.762;2022-07-06T13:24:18;21.10;96.90
8557;DHT22;4316;53.840;10.762;2022-07-06T13:26:44;20.80;97.10
8557;DHT22;4316;53.840;10.762;2022-07-06T13:29:10;20.60;97.10
8557;DHT22;4316;53.840;10.762;2022-07-06T13:31:36;20.50;97.50
8557;DHT22;4316;53.840;10.762;2022-07-06T13:34:02;20.50;97.70
8557;DHT22;4316;53.840;10.762;2022-07-06T13:36:28;20.40;97.80
8557;DHT22;4316;53.840;10.762;2022-07-06T13:38:53;20.50;97.90
8557;DHT22;4316;53.840;10.762;2022-07-06T13:41:19;20.70;97.80
8557;DHT22;4316;53.840;10.762;2022-07-06T13:43:44;20.80;97.70
8557;DHT22;4316;53.840;10.762;2022-07-06T13:46:10;20.70;97.60
8557;DHT22;4316;53.840;10.762;2022-07-06T13:48:38;20.80;97.30
8557;DHT22;4316;53.840;10.762;2022-07-06T13:51:04;20.40;97.00
8557;DHT22;4316;53.840;10.762;2022-07-06T13:53:30;20.40;96.80
8557;DHT22;4316;53.840;10.762;2022-07-06T13:55:56;20.20;97.10
8557;DHT22;4316;53.840;10.762;2022-07-06T13:58:22;20.20;97.40
8557;DHT22;4316;53.840;10.762;2022-07-06T14:00:48;20.30;97.10
8557;DHT22;4316;53.840;10.762;2022-07-06T14:03:13;20.40;97.00
8557;DHT22;4316;53.840;10.762;2022-07-06T14:05:39;20.40;97.40
8557;DHT22;4316;53.840;10.762;2022-07-06T14:08:05;20.50;97.20
8557;DHT22;4316;53.840;10.762;2022-07-06T14:10:31;20.60;97.10
8557;DHT22;4316;53.840;10.762;2022-07-06T14:12:56;20.60;97.50
8557;DHT22;4316;53.840;10.762;2022-07-06T14:15:22;20.60;97.50
8557;DHT22;4316;53.840;10.762;2022-07-06T14:17:47;20.50;97.80
8557;DHT22;4316;53.840;10.762;2022-07-06T14:20:14;20.50;97.50
8557;DHT22;4316;53.840;10.762;2022-07-06T14:22:41;20.70;97.40
8557;DHT22;4316;53.840;10.762;2022-07-06T14:25:07;20.90;97.30
8557;DHT22;4316;53.840;10.762;2022-07-06T14:27:36;21.10;97.00
8557;DHT22;4316;53.840;10.762;2022-07-06T14:30:02;21.30;97.00
8557;DHT22;4316;53.840;10.762;2022-07-06T14:32:28;21.50;96.70
8557;DHT22;4316;53.840;10.762;2022-07-06T14:34:54;21.50;96.40
8557;DHT22;4316;53.840;10.762;2022-07-06T14:37:19;21.60;96.50
8557;DHT22;4316;53.840;10.762;2022-07-06T14:39:45;21.60;95.90
8557;DHT22;4316;53.840;10.762;2022-07-06T14:42:12;21.30;95.90
8557;DHT22;4316;53.840;10.762;2022-07-06T14:44:38;21.20;96.50
8557;DHT22;4316;53.840;10.762;2022-07-06T14:47:03;21.20;96.50
8557;DHT22;4316;53.840;10.762;2022-07-06T14:49:30;21.20;96.20
8557;DHT22;4316;53.840;10.762;2022-07-06T14:51:55;20.80;95.70
8557;DHT22;4316;53.840;10.762;2022-07-06T14:54:23;20.80;95.50
8557;DHT22;4316;53.840;10.762;2022-07-06T14:56:49;20.70;96.10
8557;DHT22;4316;53.840;10.762;2022-07-06T14:59:14;20.90;96.00
8557;DHT22;4316;53.840;10.762;2022-07-06T15:01:40;20.80;95.90
8557;DHT22;4316;53.840;10.762;2022-07-06T15:04:05;20.60;95.90
8557;DHT22;4316;53.840;10.762;2022-07-06T15:06:31;20.70;95.60
8557;DHT22;4316;53.840;10.762;2022-07-06T15:08:57;20.60;95.90
8557;DHT22;4316;53.840;10.762;2022-07-06T15:11:22;20.80;96.30
8557;DHT22;4316;53.840;10.762;2022-07-06T15:13:48;20.90;95.30
8557;DHT22;4316;53.840;10.762;2022-07-06T15:16:13;21.00;95.10
8557;DHT22;4316;53.840;10.762;2022-07-06T15:18:39;21.10;94.90
8557;DHT22;4316;53.840;10.762;2022-07-06T15:21:04;21.30;95.20
8557;DHT22;4316;53.840;10.762;2022-07-06T15:23:30;21.40;95.00
8557;DHT22;4316;53.840;10.762;2022-07-06T15:25:56;21.20;94.60
8557;DHT22;4316;53.840;10.762;2022-07-06T15:28:22;21.20;94.80
8557;DHT22;4316;53.840;10.762;2022-07-06T15:30:49;21.10;94.40
8557;DHT22;4316;53.840;10.762;2022-07-06T15:33:15;21.10;94.40
8557;DHT22;4316;53.840;10.762;2022-07-06T15:35:41;20.90;94.30
8557;DHT22;4316;53.840;10.762;2022-07-06T15:38:06;20.90;94.70
8557;DHT22;4316;53.840;10.762;2022-07-06T15:40:33;20.90;93.70
8557;DHT22;4316;53.840;10.762;2022-07-06T15:43:04;21.00;94.00
8557;DHT22;4316;53.840;10.762;2022-07-06T15:45:29;20.90;94.60
8557;DHT22;4316;53.840;10.762;2022-07-06T15:47:55;20.80;94.70
8557;DHT22;4316;53.840;10.762;2022-07-06T15:50:21;20.80;95.20
8557;DHT22;4316;53.840;10.762;2022-07-06T15:52:47;20.80;94.80
8557;DHT22;4316;53.840;10.762;2022-07-06T15:55:13;20.60;94.90